createdAt,value
2019-02-06T00:01:02.535Z,16.20
2019-02-06T00:03:29.901Z,15.40
2019-02-06T00:05:57.551Z,14.77
2019-02-06T00:08:24.784Z,15.10
2019-02-06T00:10:52.131Z,13.63
2019-02-06T00:13:19.548Z,14.80
2019-02-06T00:15:57.714Z,14.83
2019-02-06T00:18:28.063Z,14.67
2019-02-06T00:20:55.358Z,13.87
2019-02-06T00:23:22.672Z,14.60
2019-02-06T00:25:50.005Z,14.07
2019-02-06T00:28:17.328Z,13.70
2019-02-06T00:30:45.049Z,15.37
2019-02-06T00:33:12.297Z,14.43
2019-02-06T00:35:39.611Z,14.80
2019-02-06T00:38:06.935Z,14.23
2019-02-06T00:40:34.192Z,14.33
2019-02-06T00:43:01.413Z,15.83
2019-02-06T00:45:31.231Z,16.03
2019-02-06T00:48:06.263Z,14.37
2019-02-06T00:50:33.611Z,14.13
2019-02-06T00:53:00.932Z,14.30
2019-02-06T00:55:28.215Z,13.70
2019-02-06T00:57:55.523Z,14.20
2019-02-06T01:00:22.907Z,14.60
2019-02-06T01:02:51.260Z,14.63
2019-02-06T01:05:19.360Z,13.13
2019-02-06T01:07:46.574Z,14.40
2019-02-06T01:10:14.552Z,12.63
2019-02-06T01:12:41.801Z,14.07
2019-02-06T01:15:10.077Z,14.40
2019-02-06T01:17:37.450Z,13.07
2019-02-06T01:20:05.641Z,14.30
2019-02-06T01:22:33.275Z,14.27
2019-02-06T01:25:00.630Z,14.80
2019-02-06T01:27:28.177Z,13.40
2019-02-06T01:29:55.472Z,13.83
2019-02-06T01:32:22.793Z,13.93
2019-02-06T01:34:50.117Z,14.50
2019-02-06T01:37:17.335Z,15.00
2019-02-06T01:39:44.556Z,15.33
2019-02-06T01:42:12.127Z,14.60
2019-02-06T01:44:39.354Z,14.27
2019-02-06T01:47:06.679Z,14.87
2019-02-06T01:49:34.079Z,16.07
2019-02-06T01:52:01.309Z,16.33
2019-02-06T01:54:28.531Z,14.23
2019-02-06T01:56:55.771Z,15.33
2019-02-06T01:59:23.314Z,14.17
2019-02-06T02:01:50.655Z,14.80
2019-02-06T02:04:17.879Z,15.30
2019-02-06T02:06:45.343Z,13.80
2019-02-06T02:09:26.546Z,15.97
2019-02-06T02:11:53.840Z,16.50
2019-02-06T02:14:32.035Z,17.43
2019-02-06T02:17:05.161Z,16.47
2019-02-06T02:19:40.236Z,17.73
2019-02-06T02:22:11.913Z,17.13
2019-02-06T02:24:39.095Z,16.80
2019-02-06T02:27:06.775Z,16.73
2019-02-06T02:29:34.304Z,18.13
2019-02-06T02:32:01.669Z,16.33
2019-02-06T02:34:29.372Z,16.67
2019-02-06T02:36:56.959Z,16.30
2019-02-06T02:39:24.196Z,15.93
2019-02-06T02:41:51.828Z,14.90
2019-02-06T02:44:19.804Z,14.13
2019-02-06T02:46:47.079Z,13.80
2019-02-06T02:49:14.421Z,14.77
2019-02-06T02:51:44.287Z,15.57
2019-02-06T02:54:11.052Z,13.47
2019-02-06T02:56:38.923Z,13.90
2019-02-06T02:59:06.292Z,14.27
2019-02-06T03:01:51.992Z,14.03
2019-02-06T03:04:38.241Z,13.73
2019-02-06T03:07:05.589Z,13.97
2019-02-06T03:09:34.865Z,15.50
2019-02-06T03:12:02.361Z,15.43
2019-02-06T03:14:29.727Z,14.83
2019-02-06T03:16:56.987Z,16.30
2019-02-06T03:19:24.236Z,15.30
2019-02-06T03:21:51.471Z,15.10
2019-02-06T03:24:18.753Z,15.30
2019-02-06T03:26:46.184Z,14.27
2019-02-06T03:29:13.587Z,15.27
2019-02-06T03:31:40.862Z,15.37
2019-02-06T03:34:08.244Z,15.27
2019-02-06T03:36:40.608Z,14.30
2019-02-06T03:39:07.418Z,14.60
2019-02-06T03:41:35.151Z,15.00
2019-02-06T03:44:02.696Z,13.67
2019-02-06T03:46:29.951Z,14.27
2019-02-06T03:48:57.661Z,13.30
2019-02-06T03:51:25.028Z,13.50
2019-02-06T03:53:52.441Z,13.73
2019-02-06T03:56:20.197Z,15.47
2019-02-06T03:58:47.427Z,15.00
2019-02-06T04:01:14.688Z,14.40
2019-02-06T04:03:42.333Z,16.57
2019-02-06T04:06:09.690Z,13.57
2019-02-06T04:08:37.030Z,14.53
2019-02-06T04:11:04.404Z,15.50
2019-02-06T04:13:31.762Z,14.80
2019-02-06T04:15:59.136Z,14.33
2019-02-06T04:18:26.596Z,13.73
2019-02-06T04:20:53.969Z,13.93
2019-02-06T04:23:21.203Z,12.97
2019-02-06T04:25:48.473Z,13.13
2019-02-06T04:28:15.707Z,12.13
2019-02-06T04:30:42.975Z,13.33
2019-02-06T04:33:10.225Z,13.30
2019-02-06T04:35:37.571Z,12.37
2019-02-06T04:38:04.830Z,12.80
2019-02-06T04:40:32.386Z,13.53
2019-02-06T04:42:59.624Z,13.40
2019-02-06T04:45:27.167Z,13.77
2019-02-06T04:47:54.816Z,15.03
2019-02-06T04:50:22.081Z,13.80
2019-02-06T04:52:49.418Z,13.37
2019-02-06T04:55:16.887Z,12.57
2019-02-06T04:57:46.415Z,13.60
2019-02-06T05:00:21.851Z,13.77
2019-02-06T05:02:49.083Z,13.53
2019-02-06T05:05:16.408Z,13.03
2019-02-06T05:07:43.765Z,13.47
2019-02-06T05:10:11.885Z,13.20
2019-02-06T05:12:39.209Z,13.20
2019-02-06T05:15:07.662Z,12.30
2019-02-06T05:17:35.279Z,11.47
2019-02-06T05:20:06.440Z,13.17
2019-02-06T05:22:33.781Z,13.63
2019-02-06T05:25:01.119Z,13.23
2019-02-06T05:27:28.449Z,13.53
2019-02-06T05:29:55.776Z,13.33
2019-02-06T05:32:23.340Z,12.63
2019-02-06T05:34:50.579Z,12.73
2019-02-06T05:37:18.040Z,12.50
2019-02-06T05:39:45.277Z,12.53
2019-02-06T05:42:12.534Z,12.77
2019-02-06T05:44:40.143Z,13.27
2019-02-06T05:47:07.515Z,12.23
2019-02-06T05:49:34.848Z,13.03
2019-02-06T05:52:02.185Z,13.47
2019-02-06T05:54:29.517Z,12.53
2019-02-06T05:56:56.864Z,13.83
2019-02-06T05:59:24.080Z,13.03
2019-02-06T06:01:51.327Z,14.23
2019-02-06T06:04:18.652Z,15.33
2019-02-06T06:06:46.356Z,16.47
2019-02-06T06:09:15.480Z,16.83
2019-02-06T06:11:42.832Z,15.60
2019-02-06T06:14:10.057Z,16.80
2019-02-06T06:16:37.583Z,17.67
2019-02-06T06:19:04.813Z,17.13
2019-02-06T06:21:32.166Z,19.27
2019-02-06T06:23:59.405Z,19.13
2019-02-06T06:26:26.752Z,19.17
2019-02-06T06:28:54.483Z,16.60
2019-02-06T06:31:21.736Z,18.83
2019-02-06T06:33:49.298Z,17.43
2019-02-06T06:36:17.756Z,18.90
2019-02-06T06:38:45.100Z,17.93
2019-02-06T06:41:12.673Z,17.73
2019-02-06T06:43:40.010Z,19.03
2019-02-06T06:46:07.421Z,17.60
2019-02-06T06:48:34.795Z,17.73
2019-02-06T06:51:02.487Z,17.07
2019-02-06T06:53:30.147Z,14.83
2019-02-06T06:55:57.381Z,16.40
2019-02-06T06:58:24.619Z,16.90
2019-02-06T07:00:51.848Z,15.77
2019-02-06T07:03:19.154Z,15.77
2019-02-06T07:05:46.739Z,15.53
2019-02-06T07:08:13.996Z,16.13
2019-02-06T07:10:41.325Z,15.80
2019-02-06T07:13:08.589Z,16.57
2019-02-06T07:15:35.911Z,16.97
2019-02-06T07:18:03.940Z,16.43
2019-02-06T07:20:31.168Z,16.53
2019-02-06T07:22:58.823Z,17.53
2019-02-06T07:25:26.162Z,17.50
2019-02-06T07:27:53.422Z,17.90
2019-02-06T07:30:23.283Z,17.40
2019-02-06T07:32:51.104Z,16.77
2019-02-06T07:35:18.345Z,16.23
2019-02-06T07:37:45.691Z,16.87
2019-02-06T07:40:13.765Z,16.60
2019-02-06T07:42:41.044Z,16.47
2019-02-06T07:45:09.755Z,17.60
2019-02-06T07:47:37.023Z,16.27
2019-02-06T07:50:06.351Z,17.60
2019-02-06T07:52:33.619Z,17.37
2019-02-06T07:55:00.873Z,17.20
2019-02-06T07:57:28.675Z,17.10
2019-02-06T07:59:56.043Z,17.50
2019-02-06T08:02:23.387Z,19.80
2019-02-06T08:04:50.711Z,18.70
2019-02-06T08:07:18.008Z,18.43
2019-02-06T08:09:45.312Z,18.40
2019-02-06T08:12:12.554Z,17.80
2019-02-06T08:14:39.881Z,17.40
2019-02-06T08:17:07.771Z,17.30
2019-02-06T08:19:35.003Z,19.33
2019-02-06T08:22:02.327Z,21.37
2019-02-06T08:24:29.938Z,24.53
2019-02-06T08:26:57.255Z,22.63
2019-02-06T08:29:24.855Z,25.10
2019-02-06T08:31:52.190Z,21.77
2019-02-06T08:34:19.719Z,22.83
2019-02-06T08:36:46.953Z,23.40
2019-02-06T08:39:14.276Z,21.90
2019-02-06T08:41:41.825Z,18.37
2019-02-06T08:44:09.056Z,18.77
2019-02-06T08:46:36.291Z,20.97
2019-02-06T08:49:03.926Z,19.73
2019-02-06T08:51:31.231Z,18.23
2019-02-06T08:53:58.474Z,17.53
2019-02-06T08:56:25.732Z,17.93
2019-02-06T08:58:53.631Z,17.00
2019-02-06T09:01:21.410Z,18.97
2019-02-06T09:03:48.763Z,18.60
2019-02-06T09:06:15.991Z,18.03
2019-02-06T09:08:43.239Z,18.17
2019-02-06T09:11:10.861Z,19.97
2019-02-06T09:13:38.500Z,18.93
2019-02-06T09:16:05.719Z,19.50
2019-02-06T09:18:32.971Z,19.07
2019-02-06T09:21:00.231Z,20.20
2019-02-06T09:23:27.763Z,19.17
2019-02-06T09:25:57.412Z,18.13
2019-02-06T09:28:24.147Z,18.57
2019-02-06T09:30:51.672Z,18.33
2019-02-06T09:33:18.979Z,18.90
2019-02-06T09:35:46.203Z,19.33
2019-02-06T09:38:13.761Z,20.70
2019-02-06T09:40:41.075Z,20.40
2019-02-06T09:43:08.292Z,19.93
2019-02-06T09:45:35.532Z,18.90
2019-02-06T09:48:03.456Z,20.17
2019-02-06T09:50:32.816Z,18.87
2019-02-06T09:53:00.135Z,19.37
2019-02-06T09:55:27.357Z,19.40
2019-02-06T09:57:54.580Z,20.93
2019-02-06T10:00:27.091Z,20.00
2019-02-06T10:02:54.403Z,19.30
2019-02-06T10:05:22.128Z,18.77
2019-02-06T10:07:49.449Z,18.13
2019-02-06T10:10:18.308Z,18.87
2019-02-06T10:12:45.544Z,17.77
2019-02-06T10:15:16.289Z,18.27
2019-02-06T10:17:43.507Z,17.20
2019-02-06T10:20:12.849Z,19.23
2019-02-06T10:22:40.181Z,17.03
2019-02-06T10:25:07.851Z,17.73
2019-02-06T10:27:35.069Z,18.07
2019-02-06T10:30:03.999Z,19.23
2019-02-06T10:32:31.361Z,17.17
2019-02-06T10:34:58.904Z,17.60
2019-02-06T10:37:29.061Z,18.83
2019-02-06T10:39:55.263Z,19.37
2019-02-06T10:42:22.380Z,18.60
2019-02-06T10:44:49.914Z,20.27
2019-02-06T10:47:17.233Z,20.43
2019-02-06T10:49:44.927Z,18.87
2019-02-06T10:52:12.143Z,19.30
2019-02-06T10:54:39.385Z,19.47
2019-02-06T10:57:10.005Z,18.27
2019-02-06T10:59:36.263Z,17.10
2019-02-06T11:02:03.869Z,17.87
2019-02-06T11:04:31.117Z,16.77
2019-02-06T11:06:58.439Z,17.17
2019-02-06T11:09:26.008Z,16.50
2019-02-06T11:11:53.328Z,17.50
2019-02-06T11:14:21.224Z,17.60
2019-02-06T11:16:48.820Z,17.47
2019-02-06T11:19:16.045Z,16.67
2019-02-06T11:21:43.364Z,17.17
2019-02-06T11:24:10.584Z,17.40
2019-02-06T11:26:37.813Z,16.77
2019-02-06T11:29:05.365Z,17.67
2019-02-06T11:31:32.581Z,16.83
2019-02-06T11:34:00.191Z,17.57
2019-02-06T11:36:27.408Z,18.77
2019-02-06T11:38:54.651Z,18.10
2019-02-06T11:41:22.231Z,17.37
2019-02-06T11:43:49.489Z,17.03
2019-02-06T11:46:16.804Z,17.93
2019-02-06T11:48:44.299Z,16.93
2019-02-06T11:51:11.940Z,17.97
2019-02-06T11:53:39.252Z,17.23
2019-02-06T11:56:06.472Z,17.37
2019-02-06T11:58:33.708Z,17.33
2019-02-06T12:01:09.814Z,17.53
2019-02-06T12:03:37.131Z,18.10
2019-02-06T12:06:04.432Z,18.00
2019-02-06T12:08:31.759Z,17.73
2019-02-06T12:10:59.195Z,17.47
2019-02-06T12:13:26.421Z,18.00
2019-02-06T12:15:53.647Z,19.67
2019-02-06T12:18:20.868Z,18.67
2019-02-06T12:20:48.401Z,18.67
2019-02-06T12:23:15.740Z,19.07
2019-02-06T12:25:43.455Z,17.07
2019-02-06T12:28:10.680Z,17.60
2019-02-06T12:30:38.507Z,17.83
2019-02-06T12:33:06.028Z,16.73
2019-02-06T12:35:33.255Z,16.83
2019-02-06T12:38:00.580Z,16.80
2019-02-06T12:40:28.007Z,17.53
2019-02-06T12:42:55.219Z,16.20
2019-02-06T12:45:22.579Z,15.97
2019-02-06T12:47:50.517Z,15.80
2019-02-06T12:50:17.767Z,14.53
2019-02-06T12:52:45.084Z,14.90
2019-02-06T12:55:19.615Z,15.47
2019-02-06T12:57:47.520Z,14.60
2019-02-06T13:00:23.726Z,13.30
2019-02-06T13:02:51.464Z,12.60
2019-02-06T13:05:18.734Z,11.17
2019-02-06T13:07:45.958Z,11.93
2019-02-06T13:10:13.872Z,11.17
2019-02-06T13:12:41.092Z,11.57
2019-02-06T13:15:10.584Z,12.07
2019-02-06T13:17:37.908Z,10.60
2019-02-06T13:20:09.325Z,10.33
2019-02-06T13:22:36.648Z,11.93
2019-02-06T13:25:04.863Z,10.60
2019-02-06T13:27:32.088Z,10.83
2019-02-06T13:29:59.399Z,11.37
2019-02-06T13:32:26.613Z,11.47
2019-02-06T13:34:53.924Z,10.50
2019-02-06T13:37:21.980Z,8.97
2019-02-06T13:39:49.229Z,8.87
2019-02-06T13:42:16.543Z,7.50
2019-02-06T13:44:44.141Z,7.37
2019-02-06T13:47:11.348Z,7.67
2019-02-06T13:49:38.678Z,7.30
2019-02-06T13:52:05.903Z,7.00
2019-02-06T13:54:33.299Z,6.77
2019-02-06T13:57:00.522Z,7.47
2019-02-06T13:59:27.839Z,7.10
2019-02-06T14:01:55.415Z,6.83
2019-02-06T14:04:22.644Z,7.40
2019-02-06T14:06:49.968Z,7.57
2019-02-06T14:09:22.836Z,7.20
2019-02-06T14:11:46.436Z,6.87
2019-02-06T14:14:14.044Z,7.83
2019-02-06T14:16:41.920Z,7.87
2019-02-06T14:19:09.445Z,7.97
2019-02-06T14:21:36.905Z,8.20
2019-02-06T14:24:15.275Z,8.10
2019-02-06T14:27:22.155Z,9.57
2019-02-06T14:30:27.036Z,10.67
2019-02-06T14:33:51.021Z,11.17
2019-02-06T14:37:01.304Z,12.47
2019-02-06T14:39:53.572Z,14.60
2019-02-06T14:42:39.544Z,14.27
2019-02-06T14:45:45.870Z,14.40
2019-02-06T14:48:44.859Z,14.00
2019-02-06T14:52:15.115Z,14.70
2019-02-06T14:55:14.388Z,14.50
2019-02-06T14:58:19.827Z,14.73
2019-02-06T15:01:28.252Z,14.20
2019-02-06T15:04:39.748Z,14.67
2019-02-06T15:07:33.085Z,14.67
2019-02-06T15:10:22.756Z,15.30
2019-02-06T15:13:32.916Z,14.37
2019-02-06T15:16:33.292Z,14.63
2019-02-06T15:19:39.101Z,14.00
2019-02-06T15:22:57.400Z,14.97
2019-02-06T15:25:45.588Z,14.90
2019-02-06T15:28:31.575Z,14.40
2019-02-06T15:31:43.119Z,14.03
2019-02-06T15:34:55.743Z,13.97
2019-02-06T15:38:06.604Z,13.33
2019-02-06T15:41:03.284Z,13.77
2019-02-06T15:44:10.583Z,14.23
2019-02-06T15:47:08.101Z,12.43
2019-02-06T15:50:00.319Z,12.93
2019-02-06T15:52:55.606Z,13.87
2019-02-06T15:56:17.768Z,13.93
2019-02-06T15:59:19.086Z,14.00
2019-02-06T16:02:24.678Z,13.80
2019-02-06T16:05:43.780Z,14.87
2019-02-06T16:08:42.999Z,12.87
2019-02-06T16:11:42.536Z,15.10
2019-02-06T16:14:18.667Z,15.60
2019-02-06T16:17:52.283Z,47.40
2019-02-06T16:21:11.228Z,27.67
2019-02-06T16:24:17.003Z,34.97
2019-02-06T16:27:31.928Z,26.70
2019-02-06T16:30:31.132Z,24.00
2019-02-06T16:33:39.651Z,18.57
2019-02-06T16:36:49.789Z,17.23
2019-02-06T16:39:51.264Z,16.83
2019-02-06T16:42:45.178Z,17.63
2019-02-06T16:45:32.241Z,19.80
2019-02-06T16:48:53.431Z,18.70
2019-02-06T16:51:35.047Z,17.97
2019-02-06T16:54:40.204Z,16.27
2019-02-06T16:57:51.901Z,14.23
2019-02-06T17:00:53.217Z,13.93
2019-02-06T17:03:55.693Z,14.17
2019-02-06T17:06:50.972Z,14.13
2019-02-06T17:10:05.973Z,15.37
2019-02-06T17:13:11.433Z,16.53
2019-02-06T17:15:59.367Z,13.63
2019-02-06T17:19:06.797Z,14.67
2019-02-06T17:22:18.216Z,13.23
2019-02-06T17:25:27.211Z,13.53
2019-02-06T17:28:20.400Z,12.97
2019-02-06T17:31:20.864Z,13.20
2019-02-06T17:34:45.280Z,13.20
2019-02-06T17:37:30.491Z,13.17
2019-02-06T17:40:28.012Z,12.77
2019-02-06T17:43:55.479Z,13.30
2019-02-06T17:46:44.719Z,14.03
2019-02-06T17:50:05.872Z,15.97
2019-02-06T17:53:29.191Z,16.57
2019-02-06T17:55:59.859Z,19.30
2019-02-06T17:58:31.335Z,15.57
2019-02-06T18:01:12.219Z,14.10
2019-02-06T18:03:43.457Z,14.50
2019-02-06T18:06:11.127Z,13.47
2019-02-06T18:08:39.534Z,13.77
2019-02-06T18:11:07.065Z,14.30
2019-02-06T18:13:35.189Z,14.43
2019-02-06T18:16:02.827Z,14.87
2019-02-06T18:18:30.048Z,15.97
2019-02-06T18:20:57.229Z,18.60
2019-02-06T18:23:24.446Z,19.40
2019-02-06T18:25:53.418Z,18.60
2019-02-06T18:28:21.039Z,17.17
2019-02-06T18:30:48.724Z,17.00
2019-02-06T18:33:18.770Z,16.80
2019-02-06T18:35:47.216Z,18.17
2019-02-06T18:38:14.655Z,19.83
2019-02-06T18:40:43.200Z,20.13
2019-02-06T18:43:11.126Z,21.17
2019-02-06T18:45:38.566Z,19.87
2019-02-06T18:48:07.511Z,19.73
2019-02-06T18:50:36.812Z,19.03
2019-02-06T18:53:05.597Z,18.13
2019-02-06T18:55:33.285Z,17.13
2019-02-06T18:58:00.616Z,16.37
2019-02-06T19:00:32.119Z,16.93
2019-02-06T19:02:59.732Z,15.80
2019-02-06T19:05:30.604Z,17.43
2019-02-06T19:07:58.076Z,18.37
2019-02-06T19:10:26.052Z,18.43
2019-02-06T19:12:53.950Z,19.03
2019-02-06T19:15:21.215Z,17.20
2019-02-06T19:17:49.219Z,17.50
2019-02-06T19:20:16.931Z,19.67
2019-02-06T19:22:44.547Z,21.13
2019-02-06T19:25:12.692Z,20.17
2019-02-06T19:27:40.026Z,19.73
2019-02-06T19:30:16.232Z,22.10
2019-02-06T19:32:44.512Z,24.47
2019-02-06T19:35:14.088Z,26.47
2019-02-06T19:37:41.693Z,24.43
2019-02-06T19:40:09.256Z,22.13
2019-02-06T19:42:36.600Z,22.53
2019-02-06T19:45:05.486Z,22.60
2019-02-06T19:47:33.135Z,23.03
2019-02-06T19:50:00.465Z,24.13
2019-02-06T19:52:28.480Z,23.80
2019-02-06T19:54:56.044Z,23.20
2019-02-06T19:57:25.940Z,24.73
2019-02-06T19:59:52.510Z,25.40
2019-02-06T20:02:19.884Z,25.87
2019-02-06T20:04:47.213Z,26.93
2019-02-06T20:07:14.549Z,26.20
2019-02-06T20:09:41.912Z,26.30
2019-02-06T20:12:09.307Z,25.17
2019-02-06T20:14:37.007Z,25.00
2019-02-06T20:17:04.551Z,27.70
2019-02-06T20:19:31.889Z,26.53
2019-02-06T20:21:59.219Z,27.27
2019-02-06T20:24:26.553Z,27.70
2019-02-06T20:26:53.891Z,28.30
2019-02-06T20:29:21.227Z,27.43
2019-02-06T20:31:48.642Z,25.47
2019-02-06T20:34:15.980Z,25.47
2019-02-06T20:36:43.736Z,25.43
2019-02-06T20:39:11.033Z,27.37
2019-02-06T20:41:38.435Z,26.07
2019-02-06T20:44:05.867Z,26.70
2019-02-06T20:46:33.247Z,30.60
2019-02-06T20:49:00.589Z,32.67
2019-02-06T20:51:28.084Z,29.40
2019-02-06T20:53:55.457Z,31.43
2019-02-06T20:56:22.734Z,33.97
2019-02-06T20:58:50.615Z,32.93
2019-02-06T21:01:18.286Z,33.50
2019-02-06T21:03:54.271Z,32.97
2019-02-06T21:06:21.887Z,30.83
2019-02-06T21:08:49.553Z,30.30
2019-02-06T21:11:16.889Z,29.23
2019-02-06T21:13:44.623Z,28.80
2019-02-06T21:16:11.846Z,29.07
2019-02-06T21:18:39.181Z,29.97
2019-02-06T21:21:06.496Z,29.50
2019-02-06T21:23:33.853Z,29.50
2019-02-06T21:26:01.459Z,28.93
2019-02-06T21:28:28.778Z,29.10
2019-02-06T21:30:56.546Z,27.93
2019-02-06T21:33:24.071Z,28.10
2019-02-06T21:35:51.393Z,28.70
2019-02-06T21:38:18.653Z,29.87
2019-02-06T21:40:45.993Z,30.13
2019-02-06T21:43:13.307Z,29.17
2019-02-06T21:45:40.882Z,31.97
2019-02-06T21:48:08.167Z,32.70
2019-02-06T21:50:35.810Z,33.47
2019-02-06T21:53:03.152Z,33.30
2019-02-06T21:55:30.489Z,30.80
2019-02-06T21:57:57.819Z,31.63
2019-02-06T22:00:39.271Z,30.33
2019-02-06T22:03:06.702Z,29.83
2019-02-06T22:05:35.075Z,41.03
2019-02-06T22:08:02.407Z,41.17
2019-02-06T22:10:29.948Z,38.00
2019-02-06T22:12:57.079Z,33.50
2019-02-06T22:15:25.823Z,27.73
2019-02-06T22:17:53.161Z,27.77
2019-02-06T22:20:20.503Z,27.50
2019-02-06T22:22:48.091Z,31.17
2019-02-06T22:25:15.419Z,39.50
2019-02-06T22:27:42.752Z,73.77
2019-02-06T22:30:14.539Z,42.93
2019-02-06T22:32:41.791Z,48.13
2019-02-06T22:35:11.902Z,38.77
2019-02-06T22:37:38.781Z,35.43
2019-02-06T22:40:09.150Z,35.33
2019-02-06T22:42:36.859Z,33.80
2019-02-06T22:45:06.220Z,33.17
2019-02-06T22:47:33.771Z,32.67
2019-02-06T22:50:01.483Z,30.80
2019-02-06T22:52:28.840Z,30.00
2019-02-06T22:54:56.481Z,30.27
2019-02-06T22:57:24.159Z,31.60
2019-02-06T22:59:51.819Z,29.20
2019-02-06T23:02:19.499Z,28.57
2019-02-06T23:04:46.826Z,30.23
2019-02-06T23:07:14.161Z,28.00
2019-02-06T23:09:41.505Z,28.83
2019-02-06T23:12:09.149Z,28.77
2019-02-06T23:14:36.380Z,29.03
2019-02-06T23:17:03.735Z,28.83
2019-02-06T23:19:30.967Z,29.67
2019-02-06T23:21:58.197Z,30.97
2019-02-06T23:24:25.427Z,30.37
2019-02-06T23:26:52.919Z,29.90
2019-02-06T23:29:20.556Z,29.07
2019-02-06T23:31:47.783Z,28.80
2019-02-06T23:34:15.020Z,28.37
2019-02-06T23:36:42.247Z,32.07
2019-02-06T23:39:16.621Z,31.10
2019-02-06T23:41:43.953Z,31.70
2019-02-06T23:44:11.583Z,29.47
2019-02-06T23:46:38.812Z,31.23
2019-02-06T23:49:06.149Z,32.90
2019-02-06T23:51:33.483Z,31.87
2019-02-06T23:54:00.715Z,32.57
2019-02-06T23:56:28.048Z,32.73
2019-02-06T23:58:58.145Z,29.63
